Tiempo atmosférico en la estación meteorológica de Muñotello, Ávila (1178 m.)



Fecha
DESCASC
Temp. máxima en grados centígrados (hora)
DESCASC
Temp. mínima en grados centígrados (hora)
DESCASC
Temp. media en grados centígrados
DESCASC
Racha de viento máxima en m/sg (hora)
DESCASC
Velocidad máxima media en intervalos de 10 minutos(hora)
DESCASC
Precipitaciones diarias en mm
DESCASC
Precipitaciones de 00:00 a 06:00 en mm
DESCASC
Precipitaciones de 06:00 a 12:00 en mm
DESCASC
Precipitaciones de 12:00 a 18:00 en mm
DESCASC
Precipitaciones de 18:00 a 24:00 en mm
DESCASC
18-04-2019 8.7 (00:00) 5.9 (23:59) 7.3 12.5 (03:10) 7.22 (03:30) 13.8 3.6 3.6 6 0.6
17-04-2019 15.9 (13:20) 8.7 (23:59) 12.3 22.5 (13:20) 14.44 (10:50) 5.2 0 0 0 5.2
16-04-2019 17 (16:00) 2.5 (00:00) 9.8 11.39 (23:59) 7.5 (16:50) 0 0 0 0 0
15-04-2019 18.6 (14:20) 6.9 (00:00) 12.8 18.61 (12:10) 12.22 (12:00) 0.6 0 0 0 0.6
14-04-2019 18.1 (15:50) 6.7 (00:00) 12.4 9.44 (16:30) 5.56 (16:10) 0 0 0 0 0
13-04-2019 17.5 (17:00) 2.4 (00:00) 10 9.72 (22:10) 6.67 (22:30) 0 0 0 0 0
12-04-2019 12.4 (17:50) 0.7 (00:00) 6.5 7.5 (17:50) 4.44 (18:20) 0 0 0 0 0
11-04-2019 10.1 (16:40) 2 (00:00) 6.1 9.17 (16:40) 5 (18:20) 0 0 0 0 0
10-04-2019 8 (15:20) 2 (00:00) 5 14.44 (02:10) 8.89 (01:40) 4 0.8 0.6 2 0.6
09-04-2019 8.1 (16:00) 1.7 (00:00) 4.9 14.72 (16:00) 10.83 (15:40) 8.4 0 0.6 3.2 4.6
08-04-2019 12 (16:20) 3.3 (00:00) 7.6 16.11 (02:40) 10 (02:40) 4.6 0.4 0.8 0 3.4
07-04-2019 8.2 (23:50) 0.6 (00:00) 4.4 13.61 (03:00) 8.33 (02:40) 2.2 1.2 0.6 0 0.4
06-04-2019 7.2 (15:00) 0.3 (00:00) 3.7 21.11 (17:50) 12.5 (17:50) 1.2 0 0.4 0.6 0.2
05-04-2019 4.3 (19:40) 0.2 (00:00) 2.3 13.89 (16:00) 7.78 (18:20) 4 0 1.4 2.4 0.2
04-04-2019 11.5 (17:20) -3.8 (-00:0) 3.9 11.39 (14:40) 6.67 (14:50) 0 0 0 0 0
03-04-2019 9.3 (17:40) 2.6 (00:00) 6 13.06 (19:40) 8.61 (13:00) 0 0 0 0 0
02-04-2019 14.8 (15:40) 6.8 (00:00) 10.8 10.28 (14:30) 7.22 (13:30) 0 0 0 0 0
01-04-2019 12.6 (18:10) 2.7 (00:00) 7.7 7.78 (23:59) 5 (23:59) 0.4 0 0 0.4 0
31-03-2019 14.5 (15:20) 2.5 (00:00) 8.5 7.22 (14:10) 4.44 (15:50) 0 0 0 0 0
30-03-2019 14.9 (14:10) 0.3 (00:00) 7.6 8.33 (20:20) 5.28 (19:40) 0 0 0 0 0
29-03-2019 15 (15:00) 3.2 (00:00) 9.1 11.67 (09:10) 5.83 (09:30) 0 0 0 0 0
28-03-2019 16.3 (15:20) 0.8 (00:00) 8.5 8.33 (17:20) 5.28 (20:30) 0 0 0 0 0
27-03-2019 15.7 (15:50) 1.8 (00:00) 8.7 6.67 (15:10) 4.17 (17:40) 0 0 0 0 0
26-03-2019 16.6 (16:30) -1.8 (-00:0) 7.4 11.39 (16:30) 7.5 (14:00) 0 0 0 0 0
25-03-2019 16 (12:40) 3.9 (00:00) 10 8.89 (15:20) 5.28 (17:30) 0 0 0 0 0
24-03-2019 16.6 (15:30) 4.7 (00:00) 10.7 14.72 (14:10) 7.5 (11:20) 0 0 0 0 0
23-03-2019 15.8 (16:00) 1.8 (00:00) 8.8 12.22 (16:20) 7.78 (13:00) 0 0 0 0 0
22-03-2019 14.4 (16:40) -1.3 (-00:0) 6.5 7.78 (16:30) 5 (19:30) 0 0 0 0 0
21-03-2019 12.7 (16:20) -0.8 (-00:0) 5.9 7.22 (21:50) 4.72 (20:50) 0 0 0 0 0

Gráficas

Temp. máximas Temp. mínimas Temp. medias Precipitaciones Rachas de viento máximas Velocidades máximas media en intervalos de 10 minutos

Datos horarios

Fecha y hora oficial Temperatura (ºC) Velocidad del viento (km/h) Dirección del viento Racha (km/h) Dirección de racha Precipitación (mm) Presión (hPa) Tendencia (hPa) Humedad (%)
2019-04-19 23:00:00 7.6 17 Este 30 Este 0.6 -- -- 95
2019-04-19 22:00:00 7.1 9 Este 15 Este 1 -- -- 96
2019-04-19 21:00:00 7.2 9 Este 20 Este 1 -- -- 95
2019-04-19 20:00:00 8.1 12 Este 20 Este 0.4 -- -- 90
2019-04-19 19:00:00 8.8 8 Este 21 Este 0 -- -- 82
2019-04-19 18:00:00 9 12 Este 24 Este 0 -- -- 80
2019-04-19 17:00:00 9 18 Este 27 Este 0 -- -- 80
2019-04-19 16:00:00 9.3 16 Este 26 Este 0 -- -- 76
2019-04-19 15:00:00 8.6 15 Nordeste 27 Este 0 -- -- 80
2019-04-19 14:00:00 7.9 17 Nordeste 30 Nordeste 0 -- -- 84
2019-04-19 13:00:00 7.5 16 Este 35 Este 0.2 -- -- 88
2019-04-19 12:00:00 7.3 13 Este 31 Este 0 -- -- 91
2019-04-19 11:00:00 7.5 13 Este 23 Este 0.2 -- -- 89
2019-04-19 10:00:00 6.6 6 Este 17 Este 0 -- -- 95
2019-04-19 09:00:00 5.9 8 Este 14 Este 0 -- -- 94
2019-04-19 08:00:00 5.6 7 Este 13 Este 0 -- -- 96
2019-04-19 07:00:00 5.6 3 Nordeste 6 Este 0 -- -- 95
2019-04-19 06:00:00 5.7 0 Calma 3 Noroeste 0 -- -- 94
2019-04-19 05:00:00 5.6 2 Este 5 Este 0 -- -- 93
2019-04-19 04:00:00 5.6 2 Este 4 Este 0 -- -- 93
2019-04-19 03:00:00 5.7 0 Calma 4 Este 0 -- -- 91
2019-04-19 02:00:00 5.7 0 Calma 2 Noroeste 0 -- -- 90
2019-04-19 01:00:00 5.4 0 Calma 6 Oeste 0 -- -- 91
2019-04-19 00:00:00 5.9 3 Oeste 9 Sudeste 0.2 -- -- 89
2019-04-18 23:00:00 6.4 5 Sudeste 16 Sudeste 0 -- -- 84
2019-04-18 22:00:00 7.4 4 Norte 15 Este 0 -- -- 85
2019-04-18 21:00:00 7.9 0 Calma 3 Oeste 0.2 -- -- 79
2019-04-18 20:00:00 8.1 2 Nordeste 5 Noroeste 0 -- -- 76
2019-04-18 19:00:00 8.1 3 Oeste 12 Este 0.2 -- -- 79
2019-04-18 18:00:00 8.6 0 Calma 10 Oeste 0 -- -- 74
2019-04-18 17:00:00 7.6 4 Oeste 8 Sudoeste 0.6 -- -- 81
2019-04-18 16:00:00 7 3 Noroeste 8 Norte 0.6 -- -- 87
2019-04-18 15:00:00 7.1 2 Sudeste 13 Sur 1.4 -- -- 83
2019-04-18 14:00:00 6.5 11 Sur 16 Sur 1.6 -- -- 83
2019-04-18 13:00:00 6.4 7 Este 10 Este 1.8 -- -- 89
2019-04-18 12:00:00 6.7 0 Calma 12 Sudeste 1 -- -- 87
2019-04-18 11:00:00 6.5 6 Sur 13 Sur 0.2 -- -- 87
2019-04-18 10:00:00 6.3 0 Calma 6 Sudeste 1.8 -- -- 90
2019-04-18 09:00:00 6.1 2 Sudeste 7 Este 0.6 -- -- 91
2019-04-18 08:00:00 6.3 2 Oeste 5 Oeste 0 -- -- 87
2019-04-18 07:00:00 6.1 4 Noroeste 10 Oeste 0 -- -- 89
2019-04-18 06:00:00 6.6 8 Noroeste 17 Sudoeste 0 -- -- 82
2019-04-18 05:00:00 7.1 4 Sudeste 26 Sudoeste 0 -- -- 80
2019-04-18 04:00:00 7.3 12 Norte 45 Sudeste 0 -- -- 77
2019-04-18 03:00:00 7.2 21 Sudeste 37 Sur 0.4 -- -- 79
2019-04-18 02:00:00 7.2 11 Sur 42 Sudeste 1.2 -- -- 82
2019-04-18 01:00:00 7.3 15 Sur 38 Sur 2 -- -- 82
2019-04-18 00:00:00 8.7 24 Sudeste 45 Sur 1 -- -- 80
2019-04-17 23:00:00 10.4 15 Sudeste 47 Sudeste 1.8 -- -- 80
2019-04-17 22:00:00 11.4 35 Sudeste 75 Sur 0.4 -- -- 69
2019-04-17 21:00:00 10.9 26 Sudeste 53 Sur 1.6 -- -- 76
2019-04-17 20:00:00 12.1 40 Sudeste 70 Sudeste 0.2 -- -- 68
2019-04-17 19:00:00 12.5 26 Sudeste 55 Sur 0.2 -- -- 65
2019-04-17 18:00:00 14.2 29 Sudeste 53 Sudeste 0 -- -- 58
2019-04-17 17:00:00 15.3 17 Sudeste 54 Sur 0 -- -- 50
2019-04-17 16:00:00 15.3 33 Sudeste 56 Sudeste 0 -- -- 46
2019-04-17 15:00:00 14.7 29 Sudeste 67 Sur 0 -- -- 47
2019-04-17 14:00:00 15.4 45 Sudeste 81 Sudeste 0 -- -- 43
2019-04-17 13:00:00 15.8 45 Sudeste 76 Sur 0 -- -- 40
2019-04-17 12:00:00 15.2 32 Sudeste 73 Sudeste 0 -- -- 46
2019-04-17 11:00:00 13.6 51 Sudeste 76 Sudeste 0 -- -- 48
2019-04-17 10:00:00 12.8 32 Sudeste 56 Sur 0 -- -- 53
2019-04-17 09:00:00 11.4 25 Sudeste 62 Sudeste 0 -- -- 62
2019-04-17 08:00:00 11.2 37 Sudeste 58 Sudeste 0 -- -- 66
2019-04-17 07:00:00 11.7 31 Sur 59 Sur 0 -- -- 61
2019-04-17 06:00:00 12.4 21 Sudeste 69 Sudeste 0 -- -- 56
2019-04-17 05:00:00 12.6 23 Sudeste 60 Sur 0 -- -- 48
2019-04-17 04:00:00 12.7 29 Sur 64 Sur 0 -- -- 46
2019-04-17 03:00:00 13.4 37 Sudeste 65 Sur 0 -- -- 43
2019-04-17 02:00:00 14 22 Sudeste 54 Sur 0 -- -- 44
2019-04-17 01:00:00 14.1 14 Sur 34 Sudeste 0 -- -- 44
2019-04-17 00:00:00 13.3 14 Este 41 Este 0 -- -- 44
2019-04-16 23:00:00 13 16 Nordeste 31 Este 0 -- -- 45
2019-04-16 22:00:00 13.8 16 Este 30 Este 0 -- -- 42
2019-04-16 21:00:00 13.5 8 Este 24 Sur 0 -- -- 47
2019-04-16 20:00:00 14.9 13 Sudeste 36 Sur 0 -- -- 43
2019-04-16 19:00:00 15.8 18 Sudeste 30 Sudeste 0 -- -- 37
2019-04-16 18:00:00 16.3 22 Sudeste 37 Sur 0 -- -- 29
2019-04-16 17:00:00 16.6 25 Sur 39 Sur 0 -- -- 31
2019-04-16 16:00:00 17 21 Sudeste 37 Sudeste 0 -- -- 34
2019-04-16 15:00:00 16.5 24 Sudeste 36 Sudeste 0 -- -- 36
2019-04-16 14:00:00 16.1 23 Sudeste 38 Sur 0 -- -- 42
2019-04-16 13:00:00 14.3 6 Nordeste 13 Este 0 -- -- 49
2019-04-16 12:00:00 11.2 4 Nordeste 9 Norte 0 -- -- 68
2019-04-16 11:00:00 9.4 2 Sudoeste 6 Noroeste 0 -- -- 75
2019-04-16 10:00:00 7.1 3 Noroeste 5 Noroeste 0 -- -- 83
2019-04-16 09:00:00 5 0 Calma 4 Oeste 0 -- -- 80
2019-04-16 08:00:00 2.6 3 Oeste 9 Sur 0 -- -- 85
2019-04-16 07:00:00 2.5 3 Sudeste 8 Sudoeste 0 -- -- 87
2019-04-16 06:00:00 3.6 5 Oeste 9 Oeste 0 -- -- 88
2019-04-16 05:00:00 4.7 3 Sur 12 Sur 0 -- -- 87
2019-04-16 04:00:00 5.1 4 Sur 9 Oeste 0 -- -- 83
2019-04-16 03:00:00 5.9 6 Oeste 13 Oeste 0 -- -- 85
2019-04-16 02:00:00 7.1 7 Oeste 17 Oeste 0 -- -- 85
2019-04-16 01:00:00 7.1 8 Oeste 22 Oeste 0 -- -- 83
2019-04-16 00:00:00 6.9 8 Oeste 24 Oeste 0 -- -- 84
2019-04-15 23:00:00 7.8 18 Oeste 28 Oeste 0 -- -- 78
2019-04-15 22:00:00 8.1 8 Oeste 17 Oeste 0 -- -- 81
2019-04-15 21:00:00 8 12 Oeste 23 Sudoeste 0 -- -- 78
2019-04-15 20:00:00 8.7 7 Oeste 42 Oeste 0.4 -- -- 79
2019-04-15 19:00:00 8.5 26 Oeste 47 Oeste 0.2 -- -- 79
2019-04-15 18:00:00 12.1 28 Oeste 44 Oeste 0 -- -- 65
2019-04-15 17:00:00 15.7 25 Oeste 45 Oeste 0 -- -- 51
2019-04-15 16:00:00 18.1 22 Sur 49 Sudoeste 0 -- -- 38
2019-04-15 15:00:00 18.2 28 Sur 51 Sudoeste 0 -- -- 42
2019-04-15 14:00:00 18.2 28 Sur 53 Sudeste 0 -- -- 43
2019-04-15 13:00:00 16.5 37 Sudeste 67 Sur 0 -- -- 59
2019-04-15 12:00:00 16.1 44 Sur 65 Sur 0 -- -- 61
2019-04-15 11:00:00 15.8 20 Sur 51 Sur 0 -- -- 64
2019-04-15 10:00:00 13.8 12 Sudoeste 32 Sudoeste 0 -- -- 72
2019-04-15 09:00:00 10.8 7 Sudoeste 14 Sudoeste 0 -- -- 85
2019-04-15 08:00:00 9.6 5 Oeste 9 Este 0 -- -- 88
2019-04-15 07:00:00 10.1 4 Noroeste 12 Sur 0 -- -- 84
2019-04-15 06:00:00 10.7 0 Calma 6 Este 0 -- -- 83
2019-04-15 05:00:00 11 2 Este 9 Sur 0 -- -- 81
2019-04-15 04:00:00 11 4 Sudeste 12 Oeste 0 -- -- 82
2019-04-15 03:00:00 10.6 4 Oeste 11 Oeste 0 -- -- 82
2019-04-15 02:00:00 10.6 9 Oeste 13 Oeste 0 -- -- 83
2019-04-15 01:00:00 11.2 4 Norte 6 Nordeste 0 -- -- 80
2019-04-15 00:00:00 12.8 2 Sur 7 Sudoeste 0 -- -- 73
2019-04-14 23:00:00 13.3 4 Sur 8 Sudoeste 0 -- -- 72
2019-04-14 22:00:00 13.9 6 Sur 9 Sur 0 -- -- 69
2019-04-14 21:00:00 14.8 3 Este 9 Norte 0 -- -- 67
2019-04-14 20:00:00 16.2 5 Noroeste 18 Noroeste 0 -- -- 61
2019-04-14 19:00:00 16.4 10 Noroeste 24 Noroeste 0 -- -- 61
2019-04-14 18:00:00 17.1 12 Noroeste 26 Noroeste 0 -- -- 60
2019-04-14 17:00:00 17.9 17 Noroeste 34 Noroeste 0 -- -- 57
2019-04-14 16:00:00 18 19 Noroeste 30 Noroeste 0 -- -- 58
2019-04-14 15:00:00 17.7 17 Oeste 31 Oeste 0 -- -- 56
2019-04-14 14:00:00 16.9 19 Oeste 33 Oeste 0 -- -- 58
2019-04-14 13:00:00 15.7 14 Noroeste 30 Oeste 0 -- -- 61
2019-04-14 12:00:00 14.7 18 Noroeste 27 Oeste 0 -- -- 64
2019-04-14 11:00:00 13.6 3 Noroeste 8 Norte 0 -- -- 68
2019-04-14 10:00:00 11.1 2 Nordeste 9 Sudeste 0 -- -- 77
2019-04-14 09:00:00 8.2 4 Sur 7 Sudoeste 0 -- -- 87
2019-04-14 08:00:00 7 0 Calma 10 Oeste 0 -- -- 81
2019-04-14 07:00:00 7.7 5 Sudoeste 11 Sur 0 -- -- 79
2019-04-14 06:00:00 7.6 6 Sur 8 Sur 0 -- -- 77
2019-04-14 05:00:00 8 3 Sudeste 5 Este 0 -- -- 77
2019-04-14 04:00:00 8.4 4 Sur 13 Oeste 0 -- -- 72
2019-04-14 03:00:00 9.2 8 Oeste 21 Oeste 0 -- -- 74
2019-04-14 02:00:00 9.7 15 Oeste 22 Oeste 0 -- -- 64
2019-04-14 01:00:00 10.6 14 Oeste 23 Oeste 0 -- -- 61
2019-04-14 00:00:00 11.1 9 Oeste 31 Sudoeste 0 -- -- 61
2019-04-13 23:00:00 12.2 22 Sudoeste 35 Sudoeste 0 -- -- 56
2019-04-13 22:00:00 13.2 23 Sudoeste 33 Sudoeste 0 -- -- 53
2019-04-13 21:00:00 12.9 10 Sudoeste 17 Oeste 0 -- -- 47
2019-04-13 20:00:00 15.1 12 Oeste 29 Oeste 0 -- -- 39
2019-04-13 19:00:00 16.4 17 Noroeste 28 Noroeste 0 -- -- 28
2019-04-13 18:00:00 16.7 16 Noroeste 27 Noroeste 0 -- -- 33
2019-04-13 17:00:00 17.5 7 Oeste 25 Oeste 0 -- -- 34
2019-04-13 16:00:00 16.7 8 Nordeste 17 Nordeste 0 -- -- 29
2019-04-13 15:00:00 15.9 5 Este 13 Nordeste 0 -- -- 30
2019-04-13 14:00:00 14.5 5 Norte 18 Este 0 -- -- 34
2019-04-13 13:00:00 13.4 6 Nordeste 15 Este 0 -- -- 31
2019-04-13 12:00:00 13.1 10 Este 15 Nordeste 0 -- -- 37
2019-04-13 11:00:00 11.7 5 Nordeste 10 Nordeste 0 -- -- 41
2019-04-13 10:00:00 7.7 2 Este 4 Sudeste 0 -- -- 59
2019-04-13 09:00:00 6 0 Calma 5 Noroeste 0 -- -- 64
2019-04-13 08:00:00 3.2 0 Calma 3 Sudeste 0 -- -- 67
2019-04-13 07:00:00 2.9 0 Calma 6 Sudoeste 0 -- -- 68
2019-04-13 06:00:00 3.1 0 Calma 2 Oeste 0 -- -- 68
2019-04-13 05:00:00 3.2 0 Calma 4 Sur 0 -- -- 68
2019-04-13 04:00:00 3.1 0 Calma 4 Oeste 0 -- -- 71
2019-04-13 03:00:00 3 0 Calma 3 Sudeste 0 -- -- 72
2019-04-13 02:00:00 3.7 3 Sudeste 6 Sudoeste 0 -- -- 71
2019-04-13 01:00:00 4.6 0 Calma 10 Sudoeste 0 -- -- 68
2019-04-13 00:00:00 5.8 5 Sudeste 13 Sur 0 -- -- 64
2019-04-12 23:00:00 6.4 9 Sur 14 Sur 0 -- -- 61
2019-04-12 22:00:00 7 11 Sur 13 Sur 0 -- -- 59
2019-04-12 21:00:00 8.5 5 Oeste 14 Norte 0 -- -- 57
2019-04-12 20:00:00 10.7 8 Norte 20 Noroeste 0 -- -- 50
2019-04-12 19:00:00 11.7 12 Noroeste 25 Norte 0 -- -- 48
2019-04-12 18:00:00 12.3 13 Norte 27 Norte 0 -- -- 46
2019-04-12 17:00:00 12.2 11 Norte 20 Norte 0 -- -- 48
2019-04-12 16:00:00 11.9 10 Norte 21 Norte 0 -- -- 50
2019-04-12 15:00:00 11 8 Norte 22 Noroeste 0 -- -- 52
2019-04-12 14:00:00 10.9 14 Noroeste 24 Noroeste 0 -- -- 53
2019-04-12 13:00:00 9.9 13 Norte 22 Oeste 0 -- -- 54
2019-04-12 12:00:00 9.7 12 Noroeste 21 Oeste 0 -- -- 57
2019-04-12 11:00:00 9.2 5 Norte 13 Norte 0 -- -- 61
2019-04-12 10:00:00 7.1 2 Nordeste 5 Norte 0 -- -- 66
2019-04-12 09:00:00 4.8 0 Calma 3 Sudeste 0 -- -- 69
2019-04-12 08:00:00 1.5 2 Sur 9 Sur 0 -- -- 77
2019-04-12 07:00:00 1.3 3 Sudoeste 5 Sur 0 -- -- 77
2019-04-12 06:00:00 1.2 2 Sur 4 Sur 0 -- -- 77
2019-04-12 05:00:00 1 2 Sudeste 12 Sur 0 -- -- 76
2019-04-12 04:00:00 2.3 8 Sudoeste 13 Sur 0 -- -- 71
2019-04-12 03:00:00 2.3 8 Sudoeste 19 Sur 0 -- -- 71
2019-04-12 02:00:00 3.2 9 Sur 13 Sur 0 -- -- 66
2019-04-12 01:00:00 3.9 11 Sur 13 Sur 0 -- -- 65
2019-04-12 00:00:00 3.1 4 Sur 13 Sur 0 -- -- 71
2019-04-11 23:00:00 4.6 9 Sur 12 Sur 0 -- -- 65
2019-04-11 22:00:00 5.1 6 Sudoeste 12 Oeste 0 -- -- 63
2019-04-11 21:00:00 6.5 8 Oeste 14 Noroeste 0 -- -- 60
2019-04-11 20:00:00 7.4 5 Noroeste 18 Norte 0 -- -- 60
2019-04-11 19:00:00 8.2 13 Norte 27 Noroeste 0 -- -- 58
2019-04-11 18:00:00 9.1 6 Norte 24 Noroeste 0 -- -- 51
2019-04-11 17:00:00 8.9 18 Noroeste 33 Norte 0 -- -- 55
2019-04-11 16:00:00 9 11 Norte 24 Norte 0 -- -- 57
2019-04-11 15:00:00 8.5 10 Norte 20 Nordeste 0 -- -- 59
2019-04-11 14:00:00 8.5 10 Nordeste 20 Nordeste 0 -- -- 61
2019-04-11 13:00:00 8.1 6 Este 13 Este 0 -- -- 63
2019-04-11 12:00:00 7.7 9 Este 14 Nordeste 0 -- -- 64
2019-04-11 11:00:00 6.1 6 Nordeste 14 Nordeste 0 -- -- 71
2019-04-11 10:00:00 5.6 2 Nordeste 6 Este 0 -- -- 75
2019-04-11 09:00:00 3.9 2 Nordeste 5 Este 0 -- -- 88
2019-04-11 08:00:00 2 2 Nordeste 4 Nordeste 0 -- -- 93
2019-04-11 07:00:00 2.6 2 Sudeste 4 Sudeste 0 -- -- 92
2019-04-11 06:00:00 3.3 0 Calma 6 Sudeste 0 -- -- 89
2019-04-11 05:00:00 3.2 4 Sur 5 Sur 0 -- -- 90
2019-04-11 04:00:00 2.8 5 Oeste 8 Noroeste 0 -- -- 91
2019-04-11 03:00:00 2.8 0 Calma 10 Oeste 0 -- -- 90
2019-04-11 02:00:00 3 8 Oeste 15 Oeste 0 -- -- 87
2019-04-11 01:00:00 2.6 3 Oeste 17 Oeste 0 -- -- 85
2019-04-11 00:00:00 2 7 Oeste 23 Oeste 0 -- -- 88
2019-04-10 23:00:00 2.3 14 Oeste 25 Oeste 0 -- -- 89
2019-04-10 22:00:00 4 17 Oeste 33 Oeste 0.4 -- -- 83
2019-04-10 21:00:00 4.1 15 Oeste 31 Oeste 0.2 -- -- 84
2019-04-10 20:00:00 5.1 19 Oeste 34 Oeste 0 -- -- 77
2019-04-10 19:00:00 4.9 8 Oeste 29 Oeste 0 -- -- 83
2019-04-10 18:00:00 5.2 17 Oeste 39 Noroeste 0 -- -- 81
2019-04-10 17:00:00 5.7 10 Oeste 48 Noroeste 2 -- -- 85
2019-04-10 16:00:00 6.7 22 Oeste 50 Noroeste 0 -- -- 74
2019-04-10 15:00:00 7.4 24 Oeste 43 Oeste 0 -- -- 67
2019-04-10 14:00:00 6.7 28 Oeste 46 Oeste 0 -- -- 74
2019-04-10 13:00:00 6.2 24 Oeste 44 Oeste 0 -- -- 78
2019-04-10 12:00:00 4.9 27 Oeste 47 Oeste 0 -- -- 81
2019-04-10 11:00:00 4.3 30 Oeste 46 Oeste 0.2 -- -- 80
2019-04-10 10:00:00 3.8 26 Oeste 41 Oeste 0 -- -- 85
2019-04-10 09:00:00 2.9 23 Oeste 42 Oeste 0.4 -- -- 90
2019-04-10 08:00:00 2.7 26 Oeste 42 Oeste 0 -- -- 89
2019-04-10 07:00:00 2.8 26 Oeste 40 Oeste 0 -- -- 89
2019-04-10 06:00:00 2.9 21 Oeste 40 Oeste 0.2 -- -- 86
2019-04-10 05:00:00 3.3 21 Oeste 45 Oeste 0 -- -- 86
2019-04-10 04:00:00 3.3 22 Oeste 47 Oeste 0 -- -- 85
2019-04-10 03:00:00 3.1 26 Oeste 52 Oeste 0 -- -- 86
2019-04-10 02:00:00 3.2 30 Oeste 48 Oeste 0.2 -- -- 87
2019-04-10 01:00:00 3.6 28 Oeste 46 Oeste 0.4 -- -- 86
2019-04-10 00:00:00 4 27 Oeste 49 Oeste 0 -- -- 86
2019-04-09 23:00:00 4.1 25 Oeste 42 Oeste 3 -- -- 90
2019-04-09 22:00:00 4.3 30 Oeste 44 Oeste 0.6 -- -- 85
2019-04-09 21:00:00 4.7 26 Oeste 45 Oeste 0.4 -- -- 84
2019-04-09 20:00:00 4.2 13 Oeste 39 Sudoeste 0.6 -- -- 85
2019-04-09 19:00:00 6.1 22 Oeste 47 Oeste 0 -- -- 75
2019-04-09 18:00:00 5.8 27 Oeste 45 Sudoeste 0.4 -- -- 77
2019-04-09 17:00:00 7 30 Oeste 53 Sudoeste 0.8 -- -- 72
2019-04-09 16:00:00 8.1 36 Oeste 53 Oeste 0 -- -- 59
2019-04-09 15:00:00 7.7 33 Oeste 51 Oeste 0 -- -- 63
2019-04-09 14:00:00 6.2 28 Oeste 46 Sudoeste 0.4 -- -- 76
2019-04-09 13:00:00 2.7 23 Oeste 41 Oeste 1.6 -- -- 88
2019-04-09 12:00:00 4.9 13 Oeste 45 Sudoeste 0.2 -- -- 81
2019-04-09 11:00:00 5.1 18 Sudoeste 38 Sudoeste 0 -- -- 75
2019-04-09 10:00:00 5.1 5 Nordeste 18 Nordeste 0 -- -- 77
2019-04-09 09:00:00 2.7 5 Este 8 Este 0.4 -- -- 91
2019-04-09 08:00:00 2 3 Este 14 Oeste 0 -- -- 88
2019-04-09 07:00:00 3.3 15 Sudoeste 37 Sudoeste 0 -- -- 77
2019-04-09 06:00:00 2.2 2 Norte 18 Sur 0 -- -- 83
2019-04-09 05:00:00 2.4 6 Sur 16 Oeste 0 -- -- 84
2019-04-09 04:00:00 2.2 3 Este 10 Nordeste 0 -- -- 89
2019-04-09 03:00:00 3 3 Oeste 12 Sudoeste 0 -- -- 84
2019-04-09 02:00:00 3 0 Calma 4 Noroeste 0 -- -- 88
2019-04-09 01:00:00 3.1 0 Calma 5 Nordeste 0 -- -- 90
2019-04-09 00:00:00 3.5 3 Norte 13 Oeste 0 -- -- 88
2019-04-08 23:00:00 3.5 0 Calma 11 Este 0 -- -- 91
2019-04-08 22:00:00 3.4 5 Este 10 Este 0.2 -- -- 91
2019-04-08 21:00:00 3.3 6 Noroeste 37 Oeste 2 -- -- 90
2019-04-08 20:00:00 4.4 23 Oeste 48 Oeste 1 -- -- 79
2019-04-08 19:00:00 8.1 22 Oeste 36 Oeste 0.2 -- -- 65
2019-04-08 18:00:00 9.2 25 Oeste 35 Noroeste 0 -- -- 60
2019-04-08 17:00:00 10.4 24 Oeste 42 Oeste 0 -- -- 51
2019-04-08 16:00:00 11.6 18 Oeste 40 Oeste 0 -- -- 49
2019-04-08 15:00:00 10.5 23 Oeste 36 Oeste 0 -- -- 55
2019-04-08 14:00:00 10 23 Oeste 34 Oeste 0 -- -- 57
2019-04-08 13:00:00 8.9 20 Oeste 36 Oeste 0 -- -- 68
2019-04-08 12:00:00 8.6 26 Oeste 39 Oeste 0 -- -- 74
2019-04-08 11:00:00 7 15 Oeste 32 Oeste 0 -- -- 83
2019-04-08 10:00:00 5.7 16 Noroeste 33 Oeste 0.8 -- -- 91
2019-04-08 09:00:00 5.6 24 Noroeste 35 Noroeste 0 -- -- 89
2019-04-08 08:00:00 7.1 21 Oeste 57 Sudoeste 0 -- -- 80
2019-04-08 07:00:00 7.5 14 Sudoeste 42 Sudoeste 0 -- -- 78
2019-04-08 06:00:00 6.5 8 Este 24 Sudoeste 0.4 -- -- 83
2019-04-08 05:00:00 6.3 6 Sudeste 21 Oeste 0 -- -- 83
2019-04-08 04:00:00 6.9 6 Norte 49 Sudoeste 0 -- -- 77
2019-04-08 03:00:00 8.8 26 Sudoeste 58 Sudoeste 0 -- -- 64
2019-04-08 02:00:00 7.3 6 Este 35 Sudoeste 0 -- -- 70
2019-04-08 01:00:00 7.8 20 Sudoeste 42 Oeste 0 -- -- 74
2019-04-08 00:00:00 7.3 7 Nordeste 41 Oeste 0 -- -- 79
2019-04-07 23:00:00 6.9 14 Sur 36 Sudoeste 0 -- -- 83
2019-04-07 22:00:00 4.6 3 Este 7 Este 0 -- -- 91
2019-04-07 21:00:00 4.8 6 Nordeste 10 Norte 0.2 -- -- 90
2019-04-07 20:00:00 5.3 5 Norte 8 Norte 0 -- -- 85
2019-04-07 19:00:00 5.4 3 Noroeste 14 Noroeste 0.2 -- -- 81
2019-04-07 18:00:00 5.9 9 Noroeste 19 Oeste 0 -- -- 76
2019-04-07 17:00:00 6.9 15 Oeste 28 Oeste 0 -- -- 68
2019-04-07 16:00:00 7.4 14 Sudoeste 29 Sudoeste 0 -- -- 66
2019-04-07 15:00:00 8.1 13 Oeste 31 Oeste 0 -- -- 65
2019-04-07 14:00:00 7.7 13 Oeste 32 Oeste 0 -- -- 64
2019-04-07 13:00:00 6.2 17 Oeste 31 Oeste 0 -- -- 69
2019-04-07 12:00:00 4.3 13 Oeste 30 Oeste 0 -- -- 76
2019-04-07 11:00:00 3.8 16 Oeste 31 Oeste 0 -- -- 77
2019-04-07 10:00:00 2.2 17 Oeste 31 Oeste 0.4 -- -- 83
2019-04-07 09:00:00 1.6 18 Oeste 36 Oeste 0.2 -- -- 85
2019-04-07 08:00:00 1.1 24 Oeste 38 Oeste 0 -- -- 88
2019-04-07 07:00:00 1.1 22 Oeste 42 Oeste 0 -- -- 83
2019-04-07 06:00:00 1 21 Oeste 39 Oeste 0.2 -- -- 82
2019-04-07 05:00:00 1.2 19 Oeste 41 Oeste 0 -- -- 86
2019-04-07 04:00:00 1.2 22 Oeste 42 Oeste 0.2 -- -- 82
2019-04-07 03:00:00 1.4 28 Oeste 49 Oeste 0.6 -- -- 83
2019-04-07 02:00:00 0.7 8 Oeste 22 Oeste 0 -- -- 92
2019-04-07 01:00:00 0.7 8 Oeste 36 Sudoeste 0.2 -- -- 90
2019-04-07 00:00:00 2.4 30 Oeste 48 Oeste 0 -- -- 76
2019-04-06 23:00:00 2.1 20 Oeste 45 Oeste 0 -- -- 81
2019-04-06 22:00:00 2.6 32 Oeste 53 Oeste 0 -- -- 76
2019-04-06 21:00:00 2.6 30 Oeste 57 Oeste 0.2 -- -- 76
2019-04-06 20:00:00 2.9 33 Oeste 55 Sudoeste 0 -- -- 79
2019-04-06 19:00:00 3.8 33 Oeste 66 Oeste 0 -- -- 70
2019-04-06 18:00:00 4.2 39 Oeste 76 Sudoeste 0.2 -- -- 70
2019-04-06 17:00:00 5.8 37 Oeste 69 Oeste 0.2 -- -- 61
2019-04-06 16:00:00 4.6 38 Oeste 64 Oeste 0.2 -- -- 71
2019-04-06 15:00:00 7.2 33 Oeste 66 Sudoeste 0 -- -- 59
2019-04-06 14:00:00 5.9 43 Oeste 68 Oeste 0 -- -- 66
2019-04-06 13:00:00 5 42 Sudoeste 66 Sudoeste 0 -- -- 71
2019-04-06 12:00:00 4 40 Sudoeste 69 Sudoeste 0 -- -- 72
2019-04-06 11:00:00 2.2 42 Sudoeste 64 Sudoeste 0.2 -- -- 72
2019-04-06 10:00:00 2.1 25 Sudoeste 45 Sudoeste 0.2 -- -- 77
2019-04-06 09:00:00 2 14 Sudoeste 37 Oeste 0 -- -- 73
2019-04-06 08:00:00 1.7 15 Oeste 53 Oeste 0 -- -- 71
2019-04-06 07:00:00 1.5 26 Sudoeste 55 Sudoeste 0 -- -- 75
2019-04-06 06:00:00 1.2 21 Sudoeste 51 Sudoeste 0 -- -- 77
2019-04-06 05:00:00 1.1 12 Sudoeste 50 Noroeste 0 -- -- 71
2019-04-06 04:00:00 0.5 2 Oeste 32 Oeste 0 -- -- 85
2019-04-06 03:00:00 0.8 19 Oeste 37 Sudoeste 0 -- -- 79
2019-04-06 02:00:00 0.5 24 Oeste 37 Oeste 0 -- -- 87
2019-04-06 01:00:00 0.6 22 Oeste 36 Oeste 0 -- -- 88
2019-04-06 00:00:00 1 17 Oeste 37 Oeste 0 -- -- 82
2019-04-05 23:00:00 0.9 17 Oeste 31 Oeste 0 -- -- 89
2019-04-05 22:00:00 0.2 5 Oeste 30 Oeste 0 -- -- 90
2019-04-05 21:00:00 1.3 12 Oeste 24 Oeste 0.2 -- -- 87
2019-04-05 20:00:00 3.3 13 Oeste 34 Sudoeste 0 -- -- 66
2019-04-05 19:00:00 4.1 19 Sudoeste 43 Oeste 0 -- -- 64
2019-04-05 18:00:00 3.5 24 Sudoeste 41 Oeste 0 -- -- 75
2019-04-05 17:00:00 1.3 19 Oeste 39 Oeste 1 -- -- 88
2019-04-05 16:00:00 2.2 27 Oeste 50 Oeste 0 -- -- 82
2019-04-05 15:00:00 3.4 22 Oeste 34 Oeste 0 -- -- 72
2019-04-05 14:00:00 3.5 19 Oeste 28 Oeste 0.4 -- -- 79
2019-04-05 13:00:00 1.7 4 Noroeste 23 Oeste 1 -- -- 89
2019-04-05 12:00:00 0.3 18 Oeste 31 Oeste 0.6 -- -- 93
2019-04-05 11:00:00 0.2 12 Oeste 17 Oeste 0.4 -- -- 91
2019-04-05 10:00:00 1.6 0 Calma 8 Noroeste 0.2 -- -- 92
2019-04-05 09:00:00 1.3 7 Noroeste 31 Sur 0.2 -- -- 88
2019-04-05 08:00:00 2.7 19 Sudoeste 34 Sur 0 -- -- 77
2019-04-05 07:00:00 3.4 17 Sudoeste 31 Sur 0 -- -- 72
2019-04-05 06:00:00 2.8 4 Oeste 31 Sudoeste 0 -- -- 77
2019-04-05 05:00:00 2.6 2 Oeste 18 Este 0 -- -- 82
2019-04-05 04:00:00 3.1 10 Norte 19 Norte 0 -- -- 78
2019-04-05 03:00:00 3.5 11 Norte 20 Nordeste 0 -- -- 76
2019-04-05 02:00:00 3.1 4 Sudeste 14 Oeste 0 -- -- 77
2019-04-05 01:00:00 3 4 Noroeste 17 Noroeste 0 -- -- 74
2019-04-05 00:00:00 3.9 6 Noroeste 23 Oeste 0 -- -- 63
2019-04-04 23:00:00 4.4 18 Oeste 31 Oeste 0 -- -- 58
2019-04-04 22:00:00 5.8 9 Noroeste 23 Oeste 0 -- -- 43
2019-04-04 21:00:00 6.3 15 Oeste 26 Sudoeste 0 -- -- 40
2019-04-04 20:00:00 7.3 16 Oeste 25 Oeste 0 -- -- 41
2019-04-04 19:00:00 8.9 16 Oeste 40 Oeste 0 -- -- 39
2019-04-04 18:00:00 10.8 10 Sudoeste 41 Sudoeste 0 -- -- 36
2019-04-04 17:00:00 11 11 Sur 34 Noroeste 0 -- -- 36
2019-04-04 16:00:00 10.6 19 Oeste 36 Oeste 0 -- -- 31
2019-04-04 15:00:00 9.4 23 Oeste 41 Noroeste 0 -- -- 31
2019-04-04 14:00:00 8.4 24 Oeste 33 Noroeste 0 -- -- 30
2019-04-04 13:00:00 7.7 7 Este 19 Este 0 -- -- 38
2019-04-04 12:00:00 5.2 6 Norte 15 Oeste 0 -- -- 42
2019-04-04 11:00:00 4.1 5 Oeste 14 Oeste 0 -- -- 45
2019-04-04 10:00:00 1.8 7 Noroeste 15 Noroeste 0 -- -- 55
2019-04-04 09:00:00 -0.8 2 Sudoeste 9 Oeste 0 -- -- 69
2019-04-04 08:00:00 -3.8 0 Calma 17 Oeste 0 -- -- 76
2019-04-04 07:00:00 -2.2 9 Oeste 15 Oeste 0 -- -- 69
2019-04-04 06:00:00 -3.1 5 Oeste 9 Oeste 0 -- -- 77
2019-04-04 05:00:00 -2.8 3 Oeste 9 Oeste 0 -- -- 74
2019-04-04 04:00:00 -1 7 Oeste 17 Oeste 0 -- -- 67
2019-04-04 03:00:00 0.7 8 Oeste 21 Oeste 0 -- -- 63
2019-04-04 02:00:00 1.3 8 Noroeste 20 Norte 0 -- -- 62
2019-04-04 01:00:00 2.1 7 Oeste 21 Noroeste 0 -- -- 55
2019-04-04 00:00:00 2.8 14 Noroeste 28 Noroeste 0 -- -- 56
2019-04-03 23:00:00 2.7 14 Oeste 23 Oeste 0 -- -- 60
2019-04-03 22:00:00 3.5 19 Oeste 35 Oeste 0 -- -- 54
2019-04-03 21:00:00 4.7 19 Oeste 45 Oeste 0 -- -- 53
2019-04-03 20:00:00 7.2 24 Oeste 47 Oeste 0 -- -- 46
2019-04-03 19:00:00 8.8 26 Oeste 37 Oeste 0 -- -- 41
2019-04-03 18:00:00 9.1 27 Oeste 41 Noroeste 0 -- -- 45
2019-04-03 17:00:00 8.8 26 Oeste 42 Oeste 0 -- -- 45
2019-04-03 16:00:00 7.3 24 Noroeste 41 Noroeste 0 -- -- 51
2019-04-03 15:00:00 8.1 27 Oeste 40 Oeste 0 -- -- 50
2019-04-03 14:00:00 7.3 23 Noroeste 39 Oeste 0 -- -- 55
2019-04-03 13:00:00 7.2 31 Oeste 45 Oeste 0 -- -- 63
2019-04-03 12:00:00 7 28 Oeste 44 Oeste 0 -- -- 68
2019-04-03 11:00:00 4.1 19 Noroeste 30 Noroeste 0 -- -- 80
2019-04-03 10:00:00 3.8 17 Noroeste 27 Oeste 0 -- -- 84
2019-04-03 09:00:00 4.3 14 Oeste 25 Oeste 0 -- -- 87
2019-04-03 08:00:00 3.3 10 Oeste 15 Oeste 0 -- -- 88
2019-04-03 07:00:00 4.2 10 Oeste 14 Oeste 0 -- -- 82
2019-04-03 06:00:00 4.9 6 Oeste 9 Oeste 0 -- -- 77
2019-04-03 05:00:00 5.4 7 Oeste 16 Sudoeste 0 -- -- 72
2019-04-03 04:00:00 5.9 12 Sudoeste 21 Sudoeste 0 -- -- 69
2019-04-03 03:00:00 6.6 14 Oeste 27 Oeste 0 -- -- 65
2019-04-03 02:00:00 7.6 17 Oeste 28 Oeste 0 -- -- 59
2019-04-03 01:00:00 6.7 11 Oeste 15 Oeste 0 -- -- 56
2019-04-03 00:00:00 7.4 4 Noroeste 19 Sudoeste 0 -- -- 49
2019-04-02 23:00:00 8.7 8 Oeste 20 Sudoeste 0 -- -- 47
2019-04-02 22:00:00 9.8 11 Sudoeste 19 Sudoeste 0 -- -- 46
2019-04-02 21:00:00 10.7 13 Oeste 28 Oeste 0 -- -- 46
2019-04-02 20:00:00 11.7 12 Oeste 33 Sudoeste 0 -- -- 48
2019-04-02 19:00:00 13.5 21 Oeste 33 Oeste 0 -- -- 47
2019-04-02 18:00:00 12.9 17 Oeste 35 Oeste 0 -- -- 51
2019-04-02 17:00:00 13 20 Oeste 35 Noroeste 0 -- -- 48
2019-04-02 16:00:00 13.8 22 Oeste 35 Oeste 0 -- -- 49
2019-04-02 15:00:00 13.9 21 Oeste 37 Oeste 0 -- -- 45
2019-04-02 14:00:00 14.1 20 Oeste 35 Oeste 0 -- -- 48
2019-04-02 13:00:00 13.8 17 Oeste 29 Oeste 0 -- -- 47
2019-04-02 12:00:00 12.4 14 Noroeste 23 Oeste 0 -- -- 55
2019-04-02 11:00:00 10.3 3 Nordeste 7 Nordeste 0 -- -- 66
2019-04-02 10:00:00 8.6 7 Noroeste 12 Noroeste 0 -- -- 74
2019-04-02 09:00:00 7.4 5 Sudoeste 8 Sudoeste 0 -- -- 79
2019-04-02 08:00:00 7.2 0 Calma 14 Oeste 0 -- -- 78
2019-04-02 07:00:00 7.9 9 Oeste 17 Oeste 0 -- -- 73
2019-04-02 06:00:00 7.1 5 Oeste 10 Oeste 0 -- -- 77
2019-04-02 05:00:00 7.1 4 Oeste 8 Sur 0 -- -- 75
2019-04-02 04:00:00 7.2 2 Sur 5 Nordeste 0 -- -- 76
2019-04-02 03:00:00 7.6 4 Oeste 13 Oeste 0 -- -- 74
2019-04-02 02:00:00 7.7 9 Oeste 22 Oeste 0 -- -- 74
2019-04-02 01:00:00 8.1 14 Oeste 26 Oeste 0 -- -- 73
2019-04-02 00:00:00 8.7 18 Oeste 28 Oeste 0 -- -- 70
2019-04-01 23:00:00 8.9 5 Sur 8 Sur 0 -- -- 69
2019-04-01 22:00:00 9.3 6 Sur 8 Sur 0 -- -- 69
2019-04-01 21:00:00 10 8 Sudoeste 17 Sudoeste 0 -- -- 66
2019-04-01 20:00:00 10.7 8 Sudoeste 11 Sudoeste 0 -- -- 65
2019-04-01 19:00:00 12.3 4 Nordeste 15 Este 0 -- -- 51
2019-04-01 18:00:00 12 13 Este 21 Sur 0 -- -- 55
2019-04-01 17:00:00 9.7 9 Sur 24 Sur 0.2 -- -- 69
2019-04-01 16:00:00 9.9 12 Sur 22 Sur 0.2 -- -- 69
2019-04-01 15:00:00 10.8 12 Noroeste 20 Norte 0 -- -- 67
2019-04-01 14:00:00 10.8 0 Calma 14 Norte 0 -- -- 62
2019-04-01 13:00:00 9.8 12 Norte 19 Noroeste 0 -- -- 71
2019-04-01 12:00:00 11.9 5 Norte 10 Noroeste 0 -- -- 59
2019-04-01 11:00:00 9.4 4 Nordeste 11 Nordeste 0 -- -- 70
2019-04-01 10:00:00 8.3 5 Este 9 Este 0 -- -- 73
2019-04-01 09:00:00 5.1 0 Calma 9 Sudoeste 0 -- -- 85
2019-04-01 08:00:00 3.7 3 Sur 5 Sur 0 -- -- 87
2019-04-01 07:00:00 4.6 4 Sur 6 Sur 0 -- -- 86
2019-04-01 06:00:00 3.2 0 Calma 3 Nordeste 0 -- -- 88
2019-04-01 05:00:00 4 3 Sur 9 Sur 0 -- -- 84
2019-04-01 04:00:00 3.9 6 Sudoeste 10 Oeste 0 -- -- 86
2019-04-01 03:00:00 3.5 4 Sudoeste 7 Sudoeste 0 -- -- 86
2019-04-01 02:00:00 4.6 0 Calma 10 Sur 0 -- -- 80
2019-04-01 01:00:00 4.8 5 Noroeste 8 Noroeste 0 -- -- 81
2019-04-01 00:00:00 5.9 4 Noroeste 9 Noroeste 0 -- -- 79
2019-03-31 23:00:00 7 2 Norte 11 Noroeste 0 -- -- 75
2019-03-31 22:00:00 7.6 2 Nordeste 15 Norte 0 -- -- 74
2019-03-31 21:00:00 8.3 9 Norte 18 Sur 0 -- -- 70
2019-03-31 20:00:00 10.5 12 Sur 23 Sur 0 -- -- 61
2019-03-31 19:00:00 12 15 Sur 24 Sudoeste 0 -- -- 58
2019-03-31 18:00:00 11.7 13 Oeste 25 Sudoeste 0 -- -- 56
2019-03-31 17:00:00 12.9 12 Este 24 Este 0 -- -- 46
2019-03-31 16:00:00 13.4 13 Nordeste 24 Este 0 -- -- 46
2019-03-31 15:00:00 13.6 14 Nordeste 26 Nordeste 0 -- -- 43
2019-03-31 14:00:00 14 10 Nordeste 25 Nordeste 0 -- -- 43
2019-03-31 13:00:00 13.1 10 Nordeste 21 Nordeste 0 -- -- 48
2019-03-31 12:00:00 11.8 5 Nordeste 12 Nordeste 0 -- -- 56
2019-03-31 11:00:00 9.3 3 Norte 6 Norte 0 -- -- 58
2019-03-31 10:00:00 7.6 2 Norte 5 Nordeste 0 -- -- 66
2019-03-31 09:00:00 5.5 0 Calma 6 Sur 0 -- -- 72
2019-03-31 08:00:00 3.7 2 Oeste 8 Sudoeste 0 -- -- 66
2019-03-31 07:00:00 2.5 0 Calma 12 Sur 0 -- -- 67
2019-03-31 06:00:00 3.1 4 Sudoeste 9 Sur 0 -- -- 65
2019-03-31 05:00:00 4.4 3 Oeste 8 Oeste 0 -- -- 59
2019-03-31 03:00:00 4.5 3 Oeste 11 Sur 0 -- -- 59
2019-03-31 01:00:00 5.5 0 Calma 9 Noroeste 0 -- -- 56
2019-03-31 00:00:00 5.9 5 Noroeste 9 Oeste 0 -- -- 55
2019-03-30 23:00:00 6.2 3 Sudoeste 10 Oeste 0 -- -- 55
2019-03-30 22:00:00 7.7 3 Oeste 9 Sudeste 0 -- -- 51
2019-03-30 21:00:00 10.2 10 Sudeste 30 Sur 0 -- -- 44
2019-03-30 20:00:00 10.5 18 Sur 29 Sur 0 -- -- 46
2019-03-30 19:00:00 12.6 15 Sudeste 24 Sudeste 0 -- -- 39
2019-03-30 18:00:00 13.8 4 Este 12 Este 0 -- -- 33
2019-03-30 17:00:00 13.6 4 Nordeste 21 Este 0 -- -- 33
2019-03-30 16:00:00 14.8 8 Norte 21 Norte 0 -- -- 33
2019-03-30 15:00:00 14.2 7 Este 21 Este 0 -- -- 30
2019-03-30 14:00:00 14.2 8 Nordeste 17 Nordeste 0 -- -- 31
2019-03-30 13:00:00 14.4 7 Este 17 Sudeste 0 -- -- 33
2019-03-30 12:00:00 12.8 7 Nordeste 18 Este 0 -- -- 38
2019-03-30 11:00:00 10.9 3 Este 7 Nordeste 0 -- -- 53
2019-03-30 10:00:00 7.4 3 Norte 5 Noroeste 0 -- -- 61
2019-03-30 09:00:00 5.2 0 Calma 5 Sudeste 0 -- -- 67
2019-03-30 08:00:00 3 2 Oeste 5 Sur 0 -- -- 74
2019-03-30 07:00:00 0.3 0 Calma 10 Sur 0 -- -- 80
2019-03-30 06:00:00 2.2 9 Sur 12 Sur 0 -- -- 75
2019-03-30 05:00:00 2.3 0 Calma 9 Sur 0 -- -- 74
2019-03-30 04:00:00 3.3 0 Calma 4 Norte 0 -- -- 67
2019-03-30 03:00:00 4 0 Calma 11 Noroeste 0 -- -- 62
2019-03-30 02:00:00 4.2 5 Oeste 9 Sudoeste 0 -- -- 57
2019-03-30 01:00:00 5 3 Norte 9 Nordeste 0 -- -- 50
2019-03-30 00:00:00 6 2 Este 16 Norte 0 -- -- 47
2019-03-29 23:00:00 8 6 Noroeste 23 Sudeste 0 -- -- 41
2019-03-29 22:00:00 8 3 Norte 27 Sudeste 0 -- -- 39
2019-03-29 21:00:00 9.5 15 Sudeste 29 Sur 0 -- -- 36
2019-03-29 20:00:00 10 17 Sudeste 28 Sudeste 0 -- -- 35
2019-03-29 19:00:00 12.1 17 Sudeste 25 Sudeste 0 -- -- 31
2019-03-29 18:00:00 13.5 17 Sudeste 25 Sudeste 0 -- -- 28
2019-03-29 17:00:00 14.6 10 Este 24 Sudeste 0 -- -- 29
2019-03-29 16:00:00 14.9 12 Este 32 Nordeste 0 -- -- 28
2019-03-29 15:00:00 15 13 Sudeste 24 Sudeste 0 -- -- 30
2019-03-29 14:00:00 14.2 14 Este 25 Sudeste 0 -- -- 31
2019-03-29 13:00:00 13.7 18 Sudeste 32 Sudeste 0 -- -- 32
2019-03-29 12:00:00 13 18 Este 36 Este 0 -- -- 32
2019-03-29 11:00:00 11.8 12 Este 41 Sur 0 -- -- 35
2019-03-29 10:00:00 10.4 13 Este 42 Este 0 -- -- 36
2019-03-29 09:00:00 8.3 17 Este 33 Este 0 -- -- 41
2019-03-29 08:00:00 5 4 Este 21 Nordeste 0 -- -- 46
2019-03-29 07:00:00 3.2 12 Nordeste 22 Nordeste 0 -- -- 49
2019-03-29 06:00:00 5.6 14 Nordeste 25 Nordeste 0 -- -- 42
2019-03-29 05:00:00 3.5 6 Este 13 Nordeste 0 -- -- 46
2019-03-29 04:00:00 3.7 4 Este 11 Sudeste 0 -- -- 45
2019-03-29 03:00:00 5 2 Este 8 Oeste 0 -- -- 41
2019-03-29 02:00:00 4.7 5 Noroeste 10 Oeste 0 -- -- 42
2019-03-29 01:00:00 4 4 Este 8 Este 0 -- -- 45
2019-03-29 00:00:00 6.2 3 Sudoeste 9 Noroeste 0 -- -- 39
2019-03-28 23:00:00 6.7 2 Sur 7 Noroeste 0 -- -- 38
2019-03-28 22:00:00 7.9 4 Oeste 12 Oeste 0 -- -- 35
2019-03-28 21:00:00 10.2 8 Sudeste 29 Sudeste 0 -- -- 32
2019-03-28 20:00:00 11.7 14 Sudeste 26 Sudeste 0 -- -- 29
2019-03-28 19:00:00 13.5 15 Sudeste 25 Este 0 -- -- 25
2019-03-28 18:00:00 15.4 10 Este 30 Nordeste 0 -- -- 26
2019-03-28 17:00:00 15.3 15 Nordeste 29 Este 0 -- -- 26
2019-03-28 16:00:00 15.9 15 Nordeste 24 Nordeste 0 -- -- 26
2019-03-28 15:00:00 16.1 6 Este 17 Nordeste 0 -- -- 26
2019-03-28 14:00:00 15.4 11 Nordeste 19 Nordeste 0 -- -- 28
2019-03-28 13:00:00 14.8 9 Nordeste 18 Nordeste 0 -- -- 29
2019-03-28 12:00:00 14.2 3 Sudeste 9 Norte 0 -- -- 31
2019-03-28 11:00:00 10.6 4 Norte 9 Nordeste 0 -- -- 38
2019-03-28 10:00:00 8 3 Noroeste 7 Noroeste 0 -- -- 41
2019-03-28 09:00:00 6 0 Calma 4 Noroeste 0 -- -- 45
2019-03-28 08:00:00 3 0 Calma 6 Sudoeste 0 -- -- 52
2019-03-28 07:00:00 1.6 3 Sudoeste 8 Sur 0 -- -- 52
2019-03-28 06:00:00 2.6 2 Sudoeste 9 Oeste 0 -- -- 49
2019-03-28 05:00:00 2.7 2 Sur 5 Sur 0 -- -- 50
2019-03-28 04:00:00 3.8 3 Sur 8 Sur 0 -- -- 48
2019-03-28 03:00:00 3.5 5 Oeste 9 Oeste 0 -- -- 49
2019-03-28 02:00:00 4.2 3 Sur 8 Sur 0 -- -- 48
2019-03-28 01:00:00 4 0 Calma 8 Sur 0 -- -- 49
2019-03-28 00:00:00 5.4 4 Oeste 10 Sur 0 -- -- 45
2019-03-27 23:00:00 6.9 9 Sudoeste 14 Sudoeste 0 -- -- 40
2019-03-27 22:00:00 8.5 5 Sudeste 11 Este 0 -- -- 35
2019-03-27 21:00:00 9.5 6 Sudoeste 15 Sur 0 -- -- 32
2019-03-27 20:00:00 10.7 5 Oeste 10 Oeste 0 -- -- 29
2019-03-27 19:00:00 12.8 5 Norte 18 Nordeste 0 -- -- 29
2019-03-27 18:00:00 13.9 14 Norte 23 Nordeste 0 -- -- 25
2019-03-27 17:00:00 14.6 14 Norte 22 Nordeste 0 -- -- 28
2019-03-27 16:00:00 15.2 12 Norte 24 Este 0 -- -- 27
2019-03-27 15:00:00 15.3 9 Nordeste 19 Nordeste 0 -- -- 23
2019-03-27 14:00:00 15.3 6 Este 15 Sudeste 0 -- -- 23
2019-03-27 13:00:00 14 7 Nordeste 14 Nordeste 0 -- -- 27
2019-03-27 12:00:00 12 4 Norte 11 Este 0 -- -- 38
2019-03-27 11:00:00 10 4 Nordeste 10 Nordeste 0 -- -- 40
2019-03-27 10:00:00 8.1 4 Norte 8 Nordeste 0 -- -- 43
2019-03-27 09:00:00 6.4 2 Nordeste 4 Oeste 0 -- -- 52
2019-03-27 08:00:00 3.2 0 Calma 6 Sur 0 -- -- 60
2019-03-27 07:00:00 2.5 0 Calma 12 Oeste 0 -- -- 61
2019-03-27 06:00:00 2.9 9 Oeste 14 Oeste 0 -- -- 57
2019-03-27 05:00:00 3.4 5 Oeste 9 Oeste 0 -- -- 52
2019-03-27 04:00:00 4.3 3 Oeste 11 Noroeste 0 -- -- 47
2019-03-27 03:00:00 4.8 5 Oeste 13 Noroeste 0 -- -- 41
2019-03-27 02:00:00 6 4 Oeste 9 Sudoeste 0 -- -- 35
2019-03-27 01:00:00 7 3 Sur 12 Sudeste 0 -- -- 32
2019-03-27 00:00:00 6.8 4 Este 10 Este 0 -- -- 33
2019-03-26 23:00:00 7.6 2 Noroeste 6 Sudeste 0 -- -- 35
2019-03-26 22:00:00 8 4 Noroeste 15 Este 0 -- -- 38
2019-03-26 21:00:00 9.7 6 Este 15 Este 0 -- -- 37
2019-03-26 20:00:00 12.6 12 Sudeste 23 Este 0 -- -- 31
2019-03-26 19:00:00 14.8 14 Este 35 Este 0 -- -- 30
2019-03-26 18:00:00 16 21 Este 35 Este 0 -- -- 24
2019-03-26 17:00:00 16.5 23 Este 41 Este 0 -- -- 21
2019-03-26 16:00:00 16.4 21 Nordeste 36 Este 0 -- -- 24
2019-03-26 15:00:00 16.2 20 Nordeste 38 Nordeste 0 -- -- 27
2019-03-26 14:00:00 15.4 27 Nordeste 40 Nordeste 0 -- -- 30
2019-03-26 13:00:00 15.3 12 Este 25 Este 0 -- -- 32
2019-03-26 12:00:00 11.7 14 Este 25 Este 0 -- -- 43
2019-03-26 11:00:00 8.4 5 Nordeste 10 Nordeste 0 -- -- 54
2019-03-26 10:00:00 4.8 3 Norte 8 Nordeste 0 -- -- 66
2019-03-26 09:00:00 2.3 2 Norte 5 Norte 0 -- -- 78
2019-03-26 08:00:00 -0.1 2 Sudoeste 8 Sur 0 -- -- 83
2019-03-26 07:00:00 -1.6 0 Calma 6 Oeste 0 -- -- 84
2019-03-26 06:00:00 -1.2 2 Este 5 Sudeste 0 -- -- 81
2019-03-26 05:00:00 -0.1 2 Sudoeste 8 Sur 0 -- -- 80
2019-03-26 04:00:00 0.4 3 Oeste 7 Sur 0 -- -- 78
2019-03-26 03:00:00 1 0 Calma 4 Sur 0 -- -- 75
2019-03-26 02:00:00 1.6 3 Norte 7 Sur 0 -- -- 72
2019-03-26 01:00:00 3.5 3 Sur 8 Sur 0 -- -- 66
2019-03-26 00:00:00 4.3 2 Sur 8 Sur 0 -- -- 64
2019-03-25 23:00:00 5.5 6 Sur 10 Este 0 -- -- 60
2019-03-25 22:00:00 7 5 Este 17 Este 0 -- -- 54
2019-03-25 21:00:00 8.3 5 Sudeste 10 Sudeste 0 -- -- 46
2019-03-25 20:00:00 9.6 4 Sudeste 17 Norte 0 -- -- 43
2019-03-25 19:00:00 11.7 14 Norte 23 Nordeste 0 -- -- 39
2019-03-25 18:00:00 13.6 17 Norte 30 Nordeste 0 -- -- 31
2019-03-25 17:00:00 14.8 13 Nordeste 25 Norte 0 -- -- 36
2019-03-25 16:00:00 15.4 13 Nordeste 32 Nordeste 0 -- -- 38
2019-03-25 15:00:00 15.3 15 Nordeste 30 Norte 0 -- -- 36
2019-03-25 14:00:00 15.4 15 Norte 27 Nordeste 0 -- -- 34
2019-03-25 13:00:00 15.5 11 Este 25 Este 0 -- -- 34
2019-03-25 12:00:00 14.8 9 Nordeste 18 Nordeste 0 -- -- 35
2019-03-25 11:00:00 12.9 3 Norte 9 Nordeste 0 -- -- 45
2019-03-25 10:00:00 10.2 2 Oeste 5 Noroeste 0 -- -- 47
2019-03-25 09:00:00 8 0 Calma 4 Sudeste 0 -- -- 57
2019-03-25 08:00:00 5.5 5 Sur 10 Sur 0 -- -- 59
2019-03-25 07:00:00 4.5 3 Sudoeste 10 Sur 0 -- -- 59
2019-03-25 06:00:00 4.1 3 Sur 8 Sur 0 -- -- 60
2019-03-25 05:00:00 4.8 5 Sur 13 Sur 0 -- -- 59
2019-03-25 04:00:00 5 8 Sur 12 Sur 0 -- -- 57
2019-03-25 03:00:00 4.4 2 Sudeste 9 Sudoeste 0 -- -- 58
2019-03-25 02:00:00 7.4 8 Sur 12 Sur 0 -- -- 50
2019-03-25 01:00:00 7 9 Oeste 18 Sur 0 -- -- 51
2019-03-25 00:00:00 5.4 10 Sur 17 Sur 0 -- -- 57
2019-03-24 23:00:00 9.2 7 Sur 10 Sudoeste 0 -- -- 44
2019-03-24 22:00:00 9.7 6 Sudoeste 14 Sudoeste 0 -- -- 43
2019-03-24 21:00:00 10.2 3 Oeste 21 Sudeste 0 -- -- 42
2019-03-24 20:00:00 12.5 15 Sudeste 22 Sudeste 0 -- -- 37
2019-03-24 19:00:00 14.3 12 Este 29 Este 0 -- -- 34
2019-03-24 18:00:00 15.4 17 Este 35 Sudeste 0 -- -- 32
2019-03-24 17:00:00 15.9 18 Este 38 Este 0 -- -- 31
2019-03-24 16:00:00 15.9 20 Este 36 Este 0 -- -- 31
2019-03-24 15:00:00 15.8 23 Este 53 Nordeste 0 -- -- 31
2019-03-24 14:00:00 15.7 18 Este 42 Nordeste 0 -- -- 33
2019-03-24 13:00:00 14.6 24 Nordeste 40 Nordeste 0 -- -- 36
2019-03-24 12:00:00 13.6 24 Este 39 Este 0 -- -- 41
2019-03-24 11:00:00 13.2 22 Este 37 Este 0 -- -- 43
2019-03-24 10:00:00 10.4 14 Este 23 Este 0 -- -- 51
2019-03-24 09:00:00 8 6 Nordeste 15 Este 0 -- -- 60
2019-03-24 08:00:00 5.4 6 Este 13 Este 0 -- -- 68
2019-03-24 07:00:00 4.8 9 Este 16 Este 0 -- -- 69
2019-03-24 06:00:00 5.3 10 Este 16 Este 0 -- -- 68
2019-03-24 05:00:00 5.5 10 Este 24 Este 0 -- -- 66
2019-03-24 04:00:00 6.5 11 Este 24 Este 0 -- -- 63
2019-03-24 03:00:00 7.4 12 Este 28 Sudeste 0 -- -- 60
2019-03-24 02:00:00 8.1 13 Sudeste 23 Sudeste 0 -- -- 60
2019-03-24 01:00:00 8.9 11 Sudeste 29 Sudeste 0 -- -- 58
2019-03-24 00:00:00 9.5 16 Sudeste 26 Sudeste 0 -- -- 55
2019-03-23 23:00:00 9.1 6 Sudeste 21 Sudeste 0 -- -- 53
2019-03-23 22:00:00 10.9 14 Sudeste 22 Sudeste 0 -- -- 48
2019-03-23 21:00:00 11.5 12 Sudeste 22 Sudeste 0 -- -- 45
2019-03-23 20:00:00 12.4 14 Sudeste 28 Sudeste 0 -- -- 41
2019-03-23 19:00:00 13.6 19 Sudeste 31 Sudeste 0 -- -- 38
2019-03-23 18:00:00 14.8 22 Este 36 Este 0 -- -- 36
2019-03-23 17:00:00 15.6 22 Este 44 Sudeste 0 -- -- 34
2019-03-23 16:00:00 15.8 23 Este 37 Sudeste 0 -- -- 35
2019-03-23 15:00:00 15.3 21 Este 35 Este 0 -- -- 38
2019-03-23 14:00:00 14.5 20 Este 42 Este 0 -- -- 38
2019-03-23 13:00:00 14.6 28 Este 38 Este 0 -- -- 35
2019-03-23 12:00:00 14 19 Este 27 Este 0 -- -- 37
2019-03-23 11:00:00 11.3 4 Este 11 Este 0 -- -- 53
2019-03-23 10:00:00 8.7 0 Calma 5 Noroeste 0 -- -- 61
2019-03-23 09:00:00 6.3 3 Norte 7 Norte 0 -- -- 69
2019-03-23 08:00:00 3.4 0 Calma 13 Este 0 -- -- 77
2019-03-23 07:00:00 2.9 7 Este 17 Nordeste 0 -- -- 77
2019-03-23 06:00:00 3.5 11 Nordeste 23 Este 0 -- -- 73
2019-03-23 05:00:00 3.5 6 Norte 12 Norte 0 -- -- 69
2019-03-23 04:00:00 2.7 5 Oeste 12 Noroeste 0 -- -- 70
2019-03-23 03:00:00 1.8 4 Este 16 Nordeste 0 -- -- 66
2019-03-23 02:00:00 3.8 0 Calma 5 Oeste 0 -- -- 57
2019-03-23 01:00:00 4 4 Oeste 10 Noroeste 0 -- -- 56
2019-03-23 00:00:00 5.7 2 Sur 4 Sur 0 -- -- 50
2019-03-22 23:00:00 6.6 0 Calma 6 Sur 0 -- -- 48
2019-03-22 22:00:00 7.8 3 Sur 6 Sur 0 -- -- 44
2019-03-22 21:00:00 8.1 2 Oeste 21 Sudeste 0 -- -- 45
2019-03-22 20:00:00 10 12 Sudeste 24 Sudeste 0 -- -- 41
2019-03-22 19:00:00 12.2 13 Sudeste 21 Sudeste 0 -- -- 37
2019-03-22 18:00:00 13.5 13 Este 23 Este 0 -- -- 36
2019-03-22 17:00:00 14 14 Nordeste 28 Este 0 -- -- 35
2019-03-22 16:00:00 14.1 12 Nordeste 23 Este 0 -- -- 33
2019-03-22 15:00:00 13.8 12 Nordeste 26 Nordeste 0 -- -- 34
2019-03-22 14:00:00 13 11 Nordeste 23 Este 0 -- -- 34
2019-03-22 13:00:00 12 7 Norte 23 Nordeste 0 -- -- 39
2019-03-22 12:00:00 10.9 8 Nordeste 18 Nordeste 0 -- -- 38
2019-03-22 11:00:00 9.8 4 Nordeste 8 Este 0 -- -- 43
2019-03-22 10:00:00 7.1 3 Nordeste 5 Norte 0 -- -- 51
2019-03-22 09:00:00 3.1 0 Calma 4 Sudeste 0 -- -- 62
2019-03-22 08:00:00 -0.4 2 Sudeste 10 Sur 0 -- -- 67
2019-03-22 07:00:00 0.2 3 Sudoeste 10 Sur 0 -- -- 65
2019-03-22 06:00:00 -0.5 3 Sur 9 Sur 0 -- -- 67
2019-03-22 05:00:00 -0.3 4 Sudoeste 12 Sur 0 -- -- 67
2019-03-22 04:00:00 0.1 6 Sur 11 Norte 0 -- -- 67
2019-03-22 03:00:00 1.6 0 Calma 5 Sur 0 -- -- 60
2019-03-22 02:00:00 1.8 0 Calma 8 Sur 0 -- -- 58
2019-03-22 01:00:00 2.8 0 Calma 7 Sur 0 -- -- 58
2019-03-22 00:00:00 3.8 4 Sur 9 Sur 0 -- -- 55
2019-03-21 23:00:00 3.8 2 Sur 15 Sudoeste 0 -- -- 56
2019-03-21 22:00:00 6.5 12 Sudoeste 26 Sur 0 -- -- 45
2019-03-21 21:00:00 7.4 14 Sur 26 Sur 0 -- -- 46
2019-03-21 20:00:00 8.3 4 Oeste 18 Sur 0 -- -- 44
2019-03-21 19:00:00 9.3 9 Norte 17 Norte 0 -- -- 44
2019-03-21 18:00:00 11.7 5 Nordeste 19 Norte 0 -- -- 35
2019-03-21 17:00:00 12.4 4 Sudeste 15 Este 0 -- -- 30
2019-03-21 16:00:00 12.3 7 Nordeste 21 Este 0 -- -- 30
2019-03-21 15:00:00 11.9 9 Nordeste 17 Nordeste 0 -- -- 33
2019-03-21 14:00:00 11.3 6 Este 17 Nordeste 0 -- -- 29
2019-03-21 13:00:00 10.7 6 Noroeste 18 Este 0 -- -- 30
2019-03-21 12:00:00 9.8 9 Nordeste 19 Nordeste 0 -- -- 39
2019-03-21 11:00:00 7.8 3 Norte 8 Nordeste 0 -- -- 54
2019-03-21 10:00:00 5.2 3 Norte 6 Norte 0 -- -- 58
2019-03-21 09:00:00 3.3 0 Calma 5 Sur 0 -- -- 62
2019-03-21 08:00:00 0.4 0 Calma 8 Sur 0 -- -- 68
2019-03-21 07:00:00 -0.8 0 Calma 10 Sur 0 -- -- 70
2019-03-21 06:00:00 -0.3 4 Oeste 6 Oeste 0 -- -- 69
2019-03-21 05:00:00 0.4 3 Oeste 5 Sur 0 -- -- 68
2019-03-21 04:00:00 -0.5 3 Sur 6 Sur 0 -- -- 73
2019-03-21 03:00:00 0.4 0 Calma 6 Sur 0 -- -- 69
2019-03-21 02:00:00 0.7 3 Sur 5 Sur 0 -- -- 69
2019-03-21 01:00:00 1.6 3 Sur 8 Oeste 0 -- -- 67
2019-03-21 00:00:00 2.6 4 Sur 9 Sur 0 -- -- 63